Time;durP1;ratioP1;P1;durP2;ratioP2;P2;SDS_P1;SDS_P2;PMS_P1;PMS_P2;Temp;Humidity;BMP_temperature;BMP_pressure;BME280_temperature;BME280_humidity;BME280_pressure;Samples;Min_cycle;Max_cycle;Signal;HPM_P1;HPM_P2
2022/07/02 00:02:17;;;;;;;;;;;;;;;16.10;60.87;101768.00;5048439;28;20019;-79
2022/07/02 00:04:56;;;;;;;;;;;;;;;16.09;60.96;101775.00;5045865;28;20434;-79
2022/07/02 00:07:21;;;;;;;;;;;;;;;16.10;60.99;101779.34;5044780;28;19940;-79
2022/07/02 00:09:47;;;;;;;;;;;;;;;16.14;60.53;101772.22;5051575;28;20338;-79
2022/07/02 00:12:13;;;;;;;;;;;;;;;16.11;62.29;101774.94;5046813;28;19971;-79
2022/07/02 00:14:38;;;;;;;;;;;;;;;16.10;61.08;101779.34;5044813;28;19928;-79
2022/07/02 00:17:04;;;;;;;;;;;;;;;16.11;61.24;101788.03;5046849;28;20391;-79
2022/07/02 00:19:30;;;;;;;;;;;;;;;16.08;61.92;101788.97;5027736;28;19924;-79
2022/07/02 00:21:57;;;;;;;;;;;;;;;16.10;60.95;101781.09;5043090;28;19923;-79
2022/07/02 00:24:22;;;;;;;;;;;;;;;16.08;61.93;101790.75;5024501;28;19925;-79
2022/07/02 00:26:54;;;;;;;;;;;;;;;16.00;61.31;101783.09;5045459;28;20711;-79
2022/07/02 00:29:38;;;;;;;;;;;;;;;15.94;61.81;101785.88;5045546;28;19984;-79
2022/07/02 00:32:04;;;;;;;;;;;;;;;15.93;61.72;101787.63;5035291;28;19932;-79
2022/07/02 00:34:31;;;;;;;;;;;;;;;15.94;60.78;101781.50;5047368;28;19929;-79
2022/07/02 00:36:57;;;;;;;;;;;;;;;15.97;62.11;101784.06;5049497;28;19921;-78
2022/07/02 00:39:22;;;;;;;;;;;;;;;15.92;62.29;101782.47;5044644;28;19939;-79
2022/07/02 00:41:48;;;;;;;;;;;;;;;15.84;62.16;101784.41;5045950;28;19924;-78
2022/07/02 00:44:14;;;;;;;;;;;;;;;15.87;62.00;101789.56;5047420;28;19921;-78
2022/07/02 00:46:40;;;;;;;;;;;;;;;15.87;62.38;101790.44;5044313;28;19939;-79
2022/07/02 00:49:08;;;;;;;;;;;;;;;15.89;62.01;101788.66;5049004;28;20014;-79
2022/07/02 00:51:34;;;;;;;;;;;;;;;15.93;61.66;101789.41;5044788;28;19917;-79
2022/07/02 00:53:59;;;;;;;;;;;;;;;15.86;61.97;101787.88;5045639;28;19935;-79
2022/07/02 00:56:24;;;;;;;;;;;;;;;15.80;61.95;101790.66;5025354;28;20011;-79
2022/07/02 00:58:50;;;;;;;;;;;;;;;15.82;62.38;101788.84;5044390;28;20426;-79
2022/07/02 01:01:15;;;;;;;;;;;;;;;15.83;62.50;101788.81;5047732;28;19929;-79
2022/07/02 01:03:42;;;;;;;;;;;;;;;15.76;61.81;101783.75;5046944;28;20405;-79
2022/07/02 01:06:07;;;;;;;;;;;;;;;15.83;61.73;101780.09;5045071;28;19929;-79
2022/07/02 01:11:18;;;;;;;;;;;;;;;15.75;61.55;101775.03;5040567;28;20307;-80
2022/07/02 01:13:43;;;;;;;;;;;;;;;15.67;62.05;101769.09;5049223;28;19933;-79
2022/07/02 01:16:08;;;;;;;;;;;;;;;15.70;62.06;101770.78;5047270;28;19932;-79
2022/07/02 01:18:35;;;;;;;;;;;;;;;15.69;62.22;101767.28;5044132;28;19932;-79
2022/07/02 01:21:00;;;;;;;;;;;;;;;15.76;62.39;101765.41;5028172;28;19974;-79
2022/07/02 01:23:26;;;;;;;;;;;;;;;15.72;62.21;101761.97;5032762;28;19928;-79
2022/07/02 01:25:52;;;;;;;;;;;;;;;15.65;62.18;101764.81;5045594;28;20441;-79
2022/07/02 01:28:17;;;;;;;;;;;;;;;15.56;62.59;101773.78;5048068;28;19931;-79
2022/07/02 01:30:43;;;;;;;;;;;;;;;15.59;62.64;101770.22;5022545;28;19924;-76
2022/07/02 01:33:08;;;;;;;;;;;;;;;15.63;62.56;101771.88;5043868;28;19929;-76
2022/07/02 01:35:34;;;;;;;;;;;;;;;15.60;62.78;101777.19;5033300;28;20008;-76
2022/07/02 01:38:00;;;;;;;;;;;;;;;15.66;62.69;101774.41;5045484;28;19920;-76
2022/07/02 01:40:25;;;;;;;;;;;;;;;15.69;62.71;101774.31;5042700;28;19963;-76
2022/07/02 01:42:50;;;;;;;;;;;;;;;15.61;61.86;101774.50;5029938;28;20391;-76
2022/07/02 01:45:16;;;;;;;;;;;;;;;15.51;62.84;101775.63;5034848;28;19928;-76
2022/07/02 01:47:41;;;;;;;;;;;;;;;15.66;61.98;101770.00;5029782;28;19931;-76
2022/07/02 01:50:07;;;;;;;;;;;;;;;15.56;62.73;101770.28;5051831;28;19932;-76
2022/07/02 01:52:32;;;;;;;;;;;;;;;15.49;62.50;101777.44;5045693;28;19925;-76
2022/07/02 01:54:57;;;;;;;;;;;;;;;15.50;62.32;101778.28;5041292;28;20521;-76
2022/07/02 01:57:23;;;;;;;;;;;;;;;15.55;62.99;101781.66;5048237;28;19928;-76
2022/07/02 01:59:48;;;;;;;;;;;;;;;15.56;62.37;101768.53;5047413;28;20452;-76
2022/07/02 02:02:13;;;;;;;;;;;;;;;15.49;62.95;101780.06;5044220;28;20414;-76
2022/07/02 02:04:39;;;;;;;;;;;;;;;15.42;63.34;101774.09;5048552;28;20379;-76
2022/07/02 02:07:05;;;;;;;;;;;;;;;15.50;63.03;101778.28;5043364;28;19921;-76
2022/07/02 02:09:30;;;;;;;;;;;;;;;15.36;63.34;101776.88;5042963;28;19920;-76
2022/07/02 02:11:55;;;;;;;;;;;;;;;15.49;62.65;101780.06;5045396;28;20396;-76
2022/07/02 02:14:21;;;;;;;;;;;;;;;15.41;62.73;101782.00;5045903;28;19935;-76
2022/07/02 02:16:46;;;;;;;;;;;;;;;15.42;63.14;101783.75;5031138;28;20533;-76
2022/07/02 02:19:11;;;;;;;;;;;;;;;15.39;63.33;101778.56;5048253;28;19925;-77
2022/07/02 02:21:37;;;;;;;;;;;;;;;15.35;63.07;101782.16;5047776;28;19928;-76
2022/07/02 02:24:02;;;;;;;;;;;;;;;15.33;62.74;101789.19;5030972;28;20411;-76
2022/07/02 02:26:28;;;;;;;;;;;;;;;15.34;62.50;101783.91;5028269;28;19921;-76
2022/07/02 02:28:53;;;;;;;;;;;;;;;15.38;62.54;101788.19;5024765;28;19925;-76
2022/07/02 02:31:19;;;;;;;;;;;;;;;15.36;63.13;101779.50;5046208;28;19964;-76
2022/07/02 02:33:44;;;;;;;;;;;;;;;15.27;63.13;101784.13;5046444;28;20303;-76
2022/07/02 02:36:10;;;;;;;;;;;;;;;15.18;63.13;101787.81;5045648;28;20018;-76
2022/07/02 02:38:36;;;;;;;;;;;;;;;15.09;63.96;101784.56;5044151;28;19952;-76
2022/07/02 02:41:05;;;;;;;;;;;;;;;14.89;63.88;101782.38;5043039;28;19962;-76
2022/07/02 02:43:35;;;;;;;;;;;;;;;15.10;63.27;101783.63;5018075;28;20396;-76
2022/07/02 02:46:00;;;;;;;;;;;;;;;15.13;63.62;101779.19;5046715;28;19921;-76
2022/07/02 02:48:26;;;;;;;;;;;;;;;15.17;63.15;101774.75;5028318;28;19913;-77
2022/07/02 02:50:51;;;;;;;;;;;;;;;15.17;63.61;101773.00;5043709;28;19978;-77
2022/07/02 02:53:17;;;;;;;;;;;;;;;15.02;64.24;101773.34;5046672;28;20379;-77
2022/07/02 02:55:42;;;;;;;;;;;;;;;15.06;64.77;101774.16;5045802;28;19928;-77
2022/07/02 02:58:08;;;;;;;;;;;;;;;15.05;64.89;101775.03;5042902;28;19917;-77
2022/07/02 03:00:33;;;;;;;;;;;;;;;15.06;64.53;101782.00;5031354;28;19928;-77
2022/07/02 03:02:59;;;;;;;;;;;;;;;15.22;64.28;101783.34;5044539;28;20391;-77
2022/07/02 03:05:24;;;;;;;;;;;;;;;15.09;64.42;101785.41;5041184;28;19935;-77
2022/07/02 03:07:50;;;;;;;;;;;;;;;15.11;64.12;101791.47;5043296;28;21471;-77
2022/07/02 03:10:15;;;;;;;;;;;;;;;15.14;64.27;101791.38;5044927;28;21029;-77
2022/07/02 03:12:40;;;;;;;;;;;;;;;15.10;65.18;101794.97;5045562;28;20372;-77
2022/07/02 03:15:06;;;;;;;;;;;;;;;15.04;65.12;101796.84;5044930;28;20865;-77
2022/07/02 03:17:31;;;;;;;;;;;;;;;14.98;65.59;101794.41;5051818;28;20317;-77
2022/07/02 03:19:56;;;;;;;;;;;;;;;15.00;65.00;101793.47;5044075;28;19948;-77
2022/07/02 03:22:22;;;;;;;;;;;;;;;14.92;65.78;101797.16;5045365;28;20442;-77
2022/07/02 03:24:47;;;;;;;;;;;;;;;15.02;64.76;101801.28;5042921;28;19921;-77
2022/07/02 03:27:12;;;;;;;;;;;;;;;15.10;64.54;101792.34;5043313;28;19928;-77
2022/07/02 03:29:37;;;;;;;;;;;;;;;15.09;64.20;101805.47;5043972;28;20352;-77
2022/07/02 03:32:03;;;;;;;;;;;;;;;15.05;64.21;101807.31;5029745;28;20379;-77
2022/07/02 03:34:28;;;;;;;;;;;;;;;15.07;64.45;101807.25;5040056;28;19929;-79
2022/07/02 03:36:53;;;;;;;;;;;;;;;15.04;64.67;101808.19;5042245;28;19960;-78
2022/07/02 03:39:19;;;;;;;;;;;;;;;15.16;64.50;101818.38;5037889;28;19924;-77
2022/07/02 03:41:45;;;;;;;;;;;;;;;15.12;64.50;101815.88;5042720;28;19982;-77
2022/07/02 03:44:11;;;;;;;;;;;;;;;14.98;65.22;101817.97;5044629;28;20007;-78
2022/07/02 03:46:36;;;;;;;;;;;;;;;15.03;64.96;101816.09;5043521;28;19982;-79
2022/07/02 03:49:01;;;;;;;;;;;;;;;15.08;64.37;101812.47;5042679;28;19928;-79
2022/07/02 03:51:27;;;;;;;;;;;;;;;15.03;65.35;101816.09;5043570;28;19925;-79
2022/07/02 03:53:52;;;;;;;;;;;;;;;14.96;64.82;101811.88;5041110;28;19928;-80
2022/07/02 03:56:18;;;;;;;;;;;;;;;15.00;65.42;101822.25;5025902;28;19966;-79
2022/07/02 03:58:43;;;;;;;;;;;;;;;15.03;64.85;101816.09;5041489;28;19950;-79
2022/07/02 04:01:08;;;;;;;;;;;;;;;15.04;65.15;101816.03;5044118;28;19929;-77
2022/07/02 04:03:34;;;;;;;;;;;;;;;15.03;65.31;101816.97;5044233;28;19921;-76
2022/07/02 04:06:00;;;;;;;;;;;;;;;15.01;64.94;101810.00;5044261;28;19925;-76
2022/07/02 04:08:25;;;;;;;;;;;;;;;14.93;65.32;101804.97;5043417;28;19921;-77
2022/07/02 04:10:51;;;;;;;;;;;;;;;14.96;65.46;101811.88;5045656;28;20347;-76
2022/07/02 04:13:16;;;;;;;;;;;;;;;15.00;65.69;101813.53;5045823;28;20023;-76
2022/07/02 04:15:41;;;;;;;;;;;;;;;14.87;66.06;101818.19;5045656;28;19951;-75
2022/07/02 04:18:07;;;;;;;;;;;;;;;14.93;65.63;101817.19;5043930;28;19924;-76
2022/07/02 04:20:32;;;;;;;;;;;;;;;15.04;65.67;101820.41;5044553;28;19968;-76
2022/07/02 04:22:57;;;;;;;;;;;;;;;15.04;65.29;101817.78;5042948;28;20425;-76
2022/07/02 04:25:23;;;;;;;;;;;;;;;15.02;66.26;101809.13;5042339;28;20512;-76
2022/07/02 04:27:48;;;;;;;;;;;;;;;15.03;65.88;101811.72;5044017;28;20404;-76
2022/07/02 04:30:13;;;;;;;;;;;;;;;14.94;66.00;101814.53;5043141;28;19921;-76
2022/07/02 04:32:39;;;;;;;;;;;;;;;15.00;65.93;101813.53;5047966;28;20696;-76
2022/07/02 04:35:05;;;;;;;;;;;;;;;15.09;65.18;101818.56;5046223;28;19929;-76
2022/07/02 04:37:30;;;;;;;;;;;;;;;15.13;65.56;101826.31;5047100;28;19920;-76
2022/07/02 04:39:55;;;;;;;;;;;;;;;15.18;65.12;101819.22;5044243;28;20019;-76
2022/07/02 04:42:21;;;;;;;;;;;;;;;15.26;65.51;101819.91;5044275;28;20550;-76
2022/07/02 04:44:46;;;;;;;;;;;;;;;15.27;65.76;101818.16;5048156;28;19921;-76
2022/07/02 04:47:11;;;;;;;;;;;;;;;15.24;65.50;101823.44;5049784;28;20580;-76
2022/07/02 04:49:37;;;;;;;;;;;;;;;15.10;66.39;101821.13;5044992;28;19943;-76
2022/07/02 04:52:02;;;;;;;;;;;;;;;15.12;65.64;101816.75;5048405;28;19925;-77
2022/07/02 04:54:29;;;;;;;;;;;;;;;15.31;65.09;101810.16;5049364;28;19925;-78
2022/07/02 04:56:54;;;;;;;;;;;;;;;15.35;65.06;101814.44;5046513;28;20374;-77
2022/07/02 04:59:20;;;;;;;;;;;;;;;15.33;64.51;101803.13;5049061;28;20031;-77
2022/07/02 05:01:45;;;;;;;;;;;;;;;15.30;65.59;101805.81;5014201;28;19940;-77
2022/07/02 05:04:11;;;;;;;;;;;;;;;15.32;65.19;101803.19;5037523;28;19920;-77
2022/07/02 05:06:36;;;;;;;;;;;;;;;15.45;64.45;101793.28;5048021;28;19932;-77
2022/07/02 05:09:02;;;;;;;;;;;;;;;15.47;65.10;101801.94;5048178;28;19932;-77
2022/07/02 05:11:27;;;;;;;;;;;;;;;15.48;65.04;101795.81;5048700;28;19924;-77
2022/07/02 05:13:53;;;;;;;;;;;;;;;15.47;65.03;101804.56;5049833;28;20361;-77
2022/07/02 05:16:18;;;;;;;;;;;;;;;15.46;63.88;101790.59;5037700;28;19933;-77
2022/07/02 05:18:43;;;;;;;;;;;;;;;15.48;63.83;101798.44;5047021;28;19931;-77
2022/07/02 05:21:09;;;;;;;;;;;;;;;15.51;63.45;101804.44;5046290;28;20422;-77
2022/07/02 05:23:34;;;;;;;;;;;;;;;15.60;64.19;101809.44;5046611;28;19925;-78
2022/07/02 05:25:59;;;;;;;;;;;;;;;15.57;63.52;101817.38;5046643;28;20018;-78
2022/07/02 05:28:25;;;;;;;;;;;;;;;15.53;64.17;101809.66;5051451;28;19929;-78
2022/07/02 05:30:51;;;;;;;;;;;;;;;15.65;63.56;101810.22;5035257;28;19924;-78
2022/07/02 05:33:16;;;;;;;;;;;;;;;15.68;63.82;101807.50;5049629;28;19921;-78
2022/07/02 05:35:42;;;;;;;;;;;;;;;15.67;64.47;101807.53;5041155;28;20474;-78
2022/07/02 05:38:07;;;;;;;;;;;;;;;15.73;63.97;101816.09;5049263;28;19921;-78
2022/07/02 05:40:32;;;;;;;;;;;;;;;15.71;63.61;101815.28;5048224;28;19947;-78
2022/07/02 05:42:58;;;;;;;;;;;;;;;15.66;63.15;101814.53;5043675;28;19921;-78
2022/07/02 05:45:23;;;;;;;;;;;;;;;15.70;64.30;101816.19;5045779;28;20511;-78
2022/07/02 05:47:48;;;;;;;;;;;;;;;15.59;64.61;101819.97;5043448;28;19925;-78
2022/07/02 05:50:14;;;;;;;;;;;;;;;15.66;64.33;101811.91;5047395;28;20043;-77
2022/07/02 05:52:39;;;;;;;;;;;;;;;15.70;63.87;101817.94;5048683;28;20307;-77
2022/07/02 05:55:05;;;;;;;;;;;;;;;15.64;63.89;101818.94;5046777;28;19925;-77
2022/07/02 05:57:30;;;;;;;;;;;;;;;15.72;62.60;101827.47;5045918;28;20406;-78
2022/07/02 05:59:56;;;;;;;;;;;;;;;15.80;63.69;101828.19;5045592;28;19927;-78
2022/07/02 06:02:22;;;;;;;;;;;;;;;15.83;64.03;101822.00;5047885;28;19920;-77
2022/07/02 06:04:47;;;;;;;;;;;;;;;15.82;62.92;101823.75;5045371;28;20316;-78
2022/07/02 06:09:57;;;;;;;;;;;;;;;15.92;63.25;101830.50;5044159;28;19924;-77
2022/07/02 06:12:23;;;;;;;;;;;;;;;15.89;63.57;101833.19;5026460;28;19921;-78
2022/07/02 06:14:48;;;;;;;;;;;;;;;15.90;63.61;101840.13;5028796;28;19933;-78
2022/07/02 06:17:13;;;;;;;;;;;;;;;15.87;62.68;101829.72;5044036;28;19921;-77
2022/07/02 06:19:39;;;;;;;;;;;;;;;15.92;62.65;101834.88;5048769;28;20058;-77
2022/07/02 06:22:04;;;;;;;;;;;;;;;16.00;62.97;101829.41;5048198;28;19963;-77
2022/07/02 06:24:30;;;;;;;;;;;;;;;16.02;63.76;101838.94;5046230;28;20106;-77
2022/07/02 06:26:55;;;;;;;;;;;;;;;16.03;62.56;101834.56;5048074;28;19921;-77
2022/07/02 06:29:21;;;;;;;;;;;;;;;16.00;63.48;101838.13;5048067;28;20384;-78
2022/07/02 06:31:46;;;;;;;;;;;;;;;16.02;63.73;101843.34;5046909;28;19947;-78
2022/07/02 06:34:11;;;;;;;;;;;;;;;16.09;63.40;101837.03;5030185;28;20501;-78
2022/07/02 06:36:37;;;;;;;;;;;;;;;16.10;63.07;101834.38;5030088;28;20302;-78
2022/07/02 06:39:02;;;;;;;;;;;;;;;16.10;63.21;101838.75;5048023;28;19977;-77
2022/07/02 06:44:11;;;;;;;;;;;;;;;16.16;63.52;101846.47;5036983;28;19955;-77
2022/07/02 06:46:36;;;;;;;;;;;;;;;16.11;61.22;101829.97;5028957;28;19956;-77
2022/07/02 06:49:02;;;;;;;;;;;;;;;16.19;60.95;101828.03;5046588;28;19931;-77
2022/07/02 06:51:27;;;;;;;;;;;;;;;16.18;62.81;101831.53;5048082;28;20363;-77
2022/07/02 06:53:59;;;;;;;;;;;;;;;16.22;61.88;101828.81;5030580;28;19928;-77
2022/07/02 06:56:25;;;;;;;;;;;;;;;16.21;61.80;101819.22;5046683;28;20035;-78
2022/07/02 06:58:50;;;;;;;;;;;;;;;16.25;62.24;101823.47;5046424;28;20007;-78
2022/07/02 07:01:15;;;;;;;;;;;;;;;16.33;61.91;101826.75;5030284;28;20343;-78
2022/07/02 07:03:41;;;;;;;;;;;;;;;16.38;61.39;101824.84;5047170;28;20043;-78
2022/07/02 07:06:06;;;;;;;;;;;;;;;16.38;60.70;101821.34;5048211;28;19928;-78
2022/07/02 07:08:31;;;;;;;;;;;;;;;16.43;61.01;101820.31;5046541;28;19916;-78
2022/07/02 07:10:57;;;;;;;;;;;;;;;16.47;61.18;101815.84;5048606;28;20410;-78
2022/07/02 07:13:22;;;;;;;;;;;;;;;16.48;60.68;101812.34;5027603;28;19929;-78
2022/07/02 07:15:47;;;;;;;;;;;;;;;16.46;61.85;101814.16;5042440;28;19917;-77
2022/07/02 07:18:13;;;;;;;;;;;;;;;16.49;61.08;101812.28;5030566;28;19929;-77
2022/07/02 07:20:38;;;;;;;;;;;;;;;16.51;60.20;101812.25;5051652;28;19920;-77
2022/07/02 07:23:03;;;;;;;;;;;;;;;16.54;60.82;101814.78;5046644;28;20632;-77
2022/07/02 07:25:30;;;;;;;;;;;;;;;16.58;59.51;101803.28;5045564;28;19967;-77
2022/07/02 07:27:55;;;;;;;;;;;;;;;16.65;59.45;101803.97;5032474;28;19923;-78
2022/07/02 07:30:21;;;;;;;;;;;;;;;16.62;58.54;101799.66;5045909;28;20303;-78
2022/07/02 07:32:46;;;;;;;;;;;;;;;16.65;58.06;101802.19;5043494;28;19932;-78
2022/07/02 07:35:11;;;;;;;;;;;;;;;16.68;59.24;101807.34;5047246;28;19936;-78
2022/07/02 07:37:37;;;;;;;;;;;;;;;16.67;60.54;101808.25;5047211;28;19924;-78
2022/07/02 07:40:06;;;;;;;;;;;;;;;16.67;60.15;101804.78;5041752;28;19916;-78
2022/07/02 07:42:31;;;;;;;;;;;;;;;16.74;61.58;101809.84;5048288;28;19952;-77
2022/07/02 07:44:57;;;;;;;;;;;;;;;16.72;59.39;101808.16;5048097;28;20283;-77
2022/07/02 07:47:22;;;;;;;;;;;;;;;16.74;59.96;101812.47;5045928;28;19963;-77
2022/07/02 07:49:47;;;;;;;;;;;;;;;16.73;61.06;101805.47;5031711;28;19927;-77
2022/07/02 07:52:13;;;;;;;;;;;;;;;16.81;58.55;101803.50;5046225;28;19931;-77
2022/07/02 07:54:39;;;;;;;;;;;;;;;16.77;59.93;101807.13;5033779;28;19925;-77
2022/07/02 07:57:05;;;;;;;;;;;;;;;16.84;58.77;101799.94;5047531;28;20038;-77
2022/07/02 07:59:30;;;;;;;;;;;;;;;16.94;56.42;101794.34;5041016;28;20008;-77
2022/07/02 08:01:55;;;;;;;;;;;;;;;16.97;56.65;101793.38;5047638;28;19938;-77
2022/07/02 08:04:21;;;;;;;;;;;;;;;16.91;57.88;101791.81;5045902;28;19925;-77
2022/07/02 08:06:46;;;;;;;;;;;;;;;16.93;58.80;101797.03;5045997;28;19932;-77
2022/07/02 08:09:12;;;;;;;;;;;;;;;16.95;58.21;101793.44;5044460;28;19932;-77
2022/07/02 08:11:37;;;;;;;;;;;;;;;16.96;61.76;101805.66;5041814;28;19931;-77
2022/07/02 08:14:02;;;;;;;;;;;;;;;17.04;57.56;101795.78;5045043;28;19921;-78
2022/07/02 08:16:28;;;;;;;;;;;;;;;17.05;57.49;101794.00;5035986;28;20608;-78
2022/07/02 08:18:53;;;;;;;;;;;;;;;17.02;58.37;101787.09;5050343;28;19924;-78
2022/07/02 08:21:18;;;;;;;;;;;;;;;17.05;57.51;101794.88;5043527;28;20038;-78
2022/07/02 08:23:44;;;;;;;;;;;;;;;17.10;56.95;101788.59;5044348;28;20089;-78
2022/07/02 08:26:09;;;;;;;;;;;;;;;17.07;56.82;101792.19;5048941;28;19932;-78
2022/07/02 08:28:35;;;;;;;;;;;;;;;17.08;61.60;101799.16;5049239;28;19925;-78
2022/07/02 08:31:01;;;;;;;;;;;;;;;17.15;56.80;101784.06;5049420;28;20401;-78
2022/07/02 08:33:26;;;;;;;;;;;;;;;17.15;63.01;101791.94;5049732;28;19921;-78
2022/07/02 08:35:51;;;;;;;;;;;;;;;17.20;56.00;101790.91;5043087;28;20014;-77
2022/07/02 08:38:17;;;;;;;;;;;;;;;17.26;55.79;101781.97;5044958;28;19921;-78
2022/07/02 08:40:46;;;;;;;;;;;;;;;17.27;55.96;101783.66;5047275;28;19924;-78
2022/07/02 08:43:12;;;;;;;;;;;;;;;17.27;54.34;101775.78;5057995;28;20101;-78
2022/07/02 08:45:38;;;;;;;;;;;;;;;17.24;55.26;101771.50;5050735;28;20276;-78
2022/07/02 08:48:07;;;;;;;;;;;;;;;17.26;54.52;101781.97;5050404;28;19924;-77
2022/07/02 08:50:33;;;;;;;;;;;;;;;17.28;55.69;101783.63;5012719;28;20442;-77
2022/07/02 08:52:59;;;;;;;;;;;;;;;17.31;56.48;101783.53;5047298;28;20387;-77
2022/07/02 08:55:24;;;;;;;;;;;;;;;17.32;54.93;101766.84;5048482;28;19933;-77
2022/07/02 08:57:50;;;;;;;;;;;;;;;17.39;52.65;101762.25;5047654;28;20304;-77
2022/07/02 09:00:17;;;;;;;;;;;;;;;17.45;51.75;101764.66;5048613;28;19917;-77
2022/07/02 09:02:43;;;;;;;;;;;;;;;17.42;58.15;101775.28;5049790;28;19967;-77
2022/07/02 09:05:10;;;;;;;;;;;;;;;17.44;51.22;101769.06;5032612;28;19924;-77
2022/07/02 09:07:37;;;;;;;;;;;;;;;17.35;52.50;101763.28;5048630;28;20003;-76
2022/07/02 09:10:03;;;;;;;;;;;;;;;17.31;51.99;101759.91;5054552;28;20384;-77
2022/07/02 09:12:28;;;;;;;;;;;;;;;17.35;53.19;101755.41;5048485;28;19912;-77
2022/07/02 09:14:53;;;;;;;;;;;;;;;17.30;53.85;101759.94;5033777;28;19951;-77
2022/07/02 09:17:19;;;;;;;;;;;;;;;17.31;58.55;101752.00;5050384;28;19963;-77
2022/07/02 09:19:44;;;;;;;;;;;;;;;17.38;58.13;101747.41;5051615;28;20842;-77
2022/07/02 09:22:09;;;;;;;;;;;;;;;17.54;51.98;101738.09;5047882;28;19916;-77
2022/07/02 09:24:42;;;;;;;;;;;;;;;17.48;54.68;101746.19;5049530;28;19943;-77
2022/07/02 09:27:12;;;;;;;;;;;;;;;17.50;52.04;101737.34;5048161;28;19921;-77
2022/07/02 09:29:40;;;;;;;;;;;;;;;17.58;50.07;101731.81;5048413;28;19995;-77
2022/07/02 09:32:06;;;;;;;;;;;;;;;17.54;51.32;101730.22;5047795;28;19928;-76
2022/07/02 09:34:31;;;;;;;;;;;;;;;17.46;55.73;101748.88;5050367;28;20379;-77
2022/07/02 09:36:56;;;;;;;;;;;;;;;17.52;50.79;101732.03;5045724;28;19935;-77
2022/07/02 09:39:29;;;;;;;;;;;;;;;17.57;49.80;101732.72;5050517;28;19944;-77
2022/07/02 09:41:54;;;;;;;;;;;;;;;17.48;50.32;101731.28;5046975;28;19932;-77
2022/07/02 09:44:20;;;;;;;;;;;;;;;17.47;51.36;101728.72;5041101;28;20674;-77
2022/07/02 09:46:45;;;;;;;;;;;;;;;17.54;51.48;101728.44;5042692;28;20007;-77
2022/07/02 09:49:12;;;;;;;;;;;;;;;17.70;53.42;101733.19;5045536;28;19973;-77
2022/07/02 09:51:51;;;;;;;;;;;;;;;17.80;51.18;101726.72;5048118;28;20368;-76
2022/07/02 09:54:18;;;;;;;;;;;;;;;17.77;51.41;101725.03;5046628;28;19996;-77
2022/07/02 09:56:49;;;;;;;;;;;;;;;17.87;49.55;101729.06;5032782;28;19932;-77
2022/07/02 09:59:15;;;;;;;;;;;;;;;17.85;50.23;101728.28;5047580;28;19943;-77
2022/07/02 10:01:42;;;;;;;;;;;;;;;17.76;52.43;101725.09;5048123;28;20617;-77
2022/07/02 10:04:08;;;;;;;;;;;;;;;17.70;50.29;101718.31;5049160;28;20388;-77
2022/07/02 10:06:33;;;;;;;;;;;;;;;17.74;51.25;101717.25;5047945;28;20494;-77
2022/07/02 10:08:59;;;;;;;;;;;;;;;17.75;51.24;101711.09;5051819;28;20334;-77
2022/07/02 10:11:24;;;;;;;;;;;;;;;17.79;50.61;101707.47;5049987;28;19929;-77
2022/07/02 10:13:50;;;;;;;;;;;;;;;17.91;51.30;101712.28;5049128;28;20311;-77
2022/07/02 10:16:17;;;;;;;;;;;;;;;17.73;55.09;101710.31;5048223;28;20959;-77
2022/07/02 10:18:43;;;;;;;;;;;;;;;17.73;51.73;101705.06;5047771;28;19913;-75
2022/07/02 10:21:13;;;;;;;;;;;;;;;17.89;53.43;101706.19;5046571;28;19920;-76
2022/07/02 10:23:39;;;;;;;;;;;;;;;17.99;51.10;101699.69;5045898;28;19978;-77
2022/07/02 10:26:04;;;;;;;;;;;;;;;17.94;52.19;101696.41;5050802;28;20015;-77
2022/07/02 10:28:30;;;;;;;;;;;;;;;17.84;58.74;101692.38;5026742;28;20538;-77
2022/07/02 10:30:56;;;;;;;;;;;;;;;17.70;61.28;101693.78;5039582;28;19920;-77
2022/07/02 10:33:24;;;;;;;;;;;;;;;17.61;61.11;101689.72;5040243;28;19931;-77
2022/07/02 10:35:50;;;;;;;;;;;;;;;17.68;55.56;101685.09;5048969;28;19971;-77
2022/07/02 10:38:15;;;;;;;;;;;;;;;17.75;56.38;101676.94;5044243;28;20451;-77
2022/07/02 10:40:48;;;;;;;;;;;;;;;17.89;53.06;101674.66;5038360;28;19920;-77
2022/07/02 10:43:14;;;;;;;;;;;;;;;17.87;53.24;101673.84;5045622;28;19912;-76
2022/07/02 10:45:39;;;;;;;;;;;;;;;17.78;56.17;101674.19;5041550;28;19916;-77
2022/07/02 10:48:05;;;;;;;;;;;;;;;17.82;53.96;101669.69;5046996;28;19920;-77
2022/07/02 10:50:34;;;;;;;;;;;;;;;17.90;53.05;101665.00;5046601;28;19925;-77
2022/07/02 10:53:12;;;;;;;;;;;;;;;17.98;52.15;101660.31;5057426;28;20004;-77
2022/07/02 10:55:38;;;;;;;;;;;;;;;17.94;50.27;101661.34;5045160;28;20303;-76
2022/07/02 10:58:08;;;;;;;;;;;;;;;18.03;49.28;101656.63;5054849;28;19920;-77
2022/07/02 11:00:35;;;;;;;;;;;;;;;17.91;49.58;101650.94;5040763;28;20402;-77
2022/07/02 11:03:11;;;;;;;;;;;;;;;17.83;52.71;101664.38;5029170;28;19925;-77
2022/07/02 11:05:50;;;;;;;;;;;;;;;17.76;59.49;101656.78;5048050;28;20444;-77
2022/07/02 11:08:34;;;;;;;;;;;;;;;17.93;57.21;101657.00;5047014;28;19917;-77
2022/07/02 11:11:02;;;;;;;;;;;;;;;17.87;54.37;101654.59;5034574;28;20463;-77
2022/07/02 11:13:34;;;;;;;;;;;;;;;17.87;60.59;101665.97;5045006;28;20339;-77
2022/07/02 11:16:00;;;;;;;;;;;;;;;17.99;55.80;101643.63;5045503;28;20315;-77
2022/07/02 11:18:26;;;;;;;;;;;;;;;17.99;56.09;101644.50;5047937;28;19947;-77
2022/07/02 11:20:52;;;;;;;;;;;;;;;18.08;54.07;101646.78;5045963;28;19921;-77
2022/07/02 11:23:17;;;;;;;;;;;;;;;17.93;61.22;101651.75;5037218;28;19932;-77
2022/07/02 11:25:42;;;;;;;;;;;;;;;17.83;57.33;101637.25;5023586;28;19928;-77
2022/07/02 11:28:08;;;;;;;;;;;;;;;17.98;53.09;101631.38;5045562;28;19920;-77
2022/07/02 11:30:33;;;;;;;;;;;;;;;17.93;54.20;101628.94;5038401;28;20474;-77
2022/07/02 11:32:59;;;;;;;;;;;;;;;18.08;50.94;101617.84;5052869;28;20437;-76
2022/07/02 11:35:24;;;;;;;;;;;;;;;18.12;50.50;101622.06;5038271;28;19932;-77
2022/07/02 11:37:54;;;;;;;;;;;;;;;18.04;54.80;101612.75;5045842;28;20011;-77
2022/07/02 11:40:20;;;;;;;;;;;;;;;18.03;55.02;101604.03;5045464;28;20295;-77
2022/07/02 11:42:46;;;;;;;;;;;;;;;17.98;60.74;101619.09;5053574;28;19952;-76
2022/07/02 11:45:11;;;;;;;;;;;;;;;18.12;55.31;101611.53;5053243;28;19995;-77
2022/07/02 11:47:46;;;;;;;;;;;;;;;18.10;60.74;101623.03;5045981;28;20093;-77
2022/07/02 11:50:12;;;;;;;;;;;;;;;18.31;52.29;101601.16;5047752;28;19996;-77
2022/07/02 11:52:39;;;;;;;;;;;;;;;18.16;60.22;101612.28;5053139;28;19924;-77
2022/07/02 11:55:04;;;;;;;;;;;;;;;18.07;52.30;101604.75;5048890;28;19967;-77
2022/07/02 11:57:33;;;;;;;;;;;;;;;18.18;51.98;101604.34;5047978;28;20003;-77
2022/07/02 11:59:59;;;;;;;;;;;;;;;17.87;62.06;101610.78;5051436;28;19921;-77
2022/07/02 12:02:24;;;;;;;;;;;;;;;18.18;50.87;101587.63;5050688;28;19927;-77
2022/07/02 12:04:49;;;;;;;;;;;;;;;18.08;54.39;101591.56;5049313;28;19991;-77
2022/07/02 12:07:15;;;;;;;;;;;;;;;18.28;52.85;101585.50;5056325;28;19928;-77
2022/07/02 12:09:40;;;;;;;;;;;;;;;18.13;55.43;101578.22;5053312;28;19931;-77
2022/07/02 12:12:06;;;;;;;;;;;;;;;18.26;52.45;101584.72;5046675;28;20051;-76
2022/07/02 12:14:31;;;;;;;;;;;;;;;18.05;60.93;101602.19;5044605;28;19924;-77
2022/07/02 12:16:57;;;;;;;;;;;;;;;18.00;57.30;101584.88;5050411;28;20021;-77
2022/07/02 12:19:30;;;;;;;;;;;;;;;18.31;54.72;101581.88;5041334;28;19943;-77
2022/07/02 12:21:55;;;;;;;;;;;;;;;17.97;62.00;101580.59;5046972;28;20380;-77
2022/07/02 12:24:25;;;;;;;;;;;;;;;17.85;62.97;101578.44;5035584;28;19928;-77
2022/07/02 12:26:53;;;;;;;;;;;;;;;18.00;62.77;101566.47;5050298;28;19967;-77
2022/07/02 12:32:07;;;;;;;;;;;;;;;17.87;63.80;101560.84;5048662;28;19927;-77
2022/07/02 12:34:37;;;;;;;;;;;;;;;18.09;55.42;101545.09;5050874;28;19936;-77
2022/07/02 12:37:03;;;;;;;;;;;;;;;18.12;56.54;101542.34;5049190;28;20029;-77
2022/07/02 12:39:39;;;;;;;;;;;;;;;17.98;62.36;101550.75;5049239;28;20744;-76
2022/07/02 12:42:14;;;;;;;;;;;;;;;17.89;62.48;101540.59;5057285;28;20715;-77